sensor_id;sensor_type;location;lat;lon;timestamp;pressure;altitude;pressure_sealevel;temperature;humidity
14273;BME280;7220;49.450;11.052;2023-04-08T00:03:22;98320.09;;;7.75;68.18
14273;BME280;7220;49.450;11.052;2023-04-08T00:07:22;98328.09;;;7.73;68.89
14273;BME280;7220;49.450;11.052;2023-04-08T00:11:22;98321.34;;;7.66;68.27
14273;BME280;7220;49.450;11.052;2023-04-08T00:15:23;98323.28;;;7.61;68.83
14273;BME280;7220;49.450;11.052;2023-04-08T00:19:23;98321.94;;;7.51;69.25
14273;BME280;7220;49.450;11.052;2023-04-08T00:23:24;98328.22;;;7.48;68.97
14273;BME280;7220;49.450;11.052;2023-04-08T00:27:24;98322.94;;;7.48;68.68
14273;BME280;7220;49.450;11.052;2023-04-08T00:31:25;98317.84;;;7.42;68.19
14273;BME280;7220;49.450;11.052;2023-04-08T00:35:26;98329.41;;;7.39;67.54
14273;BME280;7220;49.450;11.052;2023-04-08T00:39:26;98332.97;;;7.38;68.07
14273;BME280;7220;49.450;11.052;2023-04-08T00:43:26;98318.03;;;7.37;67.55
14273;BME280;7220;49.450;11.052;2023-04-08T00:47:27;98318.97;;;7.36;67.06
14273;BME280;7220;49.450;11.052;2023-04-08T00:51:28;98324.13;;;7.39;66.08
14273;BME280;7220;49.450;11.052;2023-04-08T00:55:30;98326.53;;;7.46;65.78
14273;BME280;7220;49.450;11.052;2023-04-08T00:59:31;98328.75;;;7.34;66.26
14273;BME280;7220;49.450;11.052;2023-04-08T01:03:45;98327.09;;;7.32;65.50
14273;BME280;7220;49.450;11.052;2023-04-08T01:07:49;98339.38;;;7.33;65.42
14273;BME280;7220;49.450;11.052;2023-04-08T01:11:51;98338.59;;;7.31;66.09
14273;BME280;7220;49.450;11.052;2023-04-08T01:15:53;98346.78;;;7.23;65.08
14273;BME280;7220;49.450;11.052;2023-04-08T01:19:55;98341.75;;;7.17;65.40
14273;BME280;7220;49.450;11.052;2023-04-08T01:24:00;98350.88;;;7.08;66.38
14273;BME280;7220;49.450;11.052;2023-04-08T01:28:12;98341.34;;;7.04;66.81
14273;BME280;7220;49.450;11.052;2023-04-08T01:32:15;98356.34;;;7.03;66.80
14273;BME280;7220;49.450;11.052;2023-04-08T01:36:16;98346.69;;;7.02;66.91
14273;BME280;7220;49.450;11.052;2023-04-08T01:40:18;98337.94;;;7.00;66.98
14273;BME280;7220;49.450;11.052;2023-04-08T01:44:19;98343.28;;;6.99;67.25
14273;BME280;7220;49.450;11.052;2023-04-08T01:48:21;98341.50;;;6.99;67.21
14273;BME280;7220;49.450;11.052;2023-04-08T01:52:22;98344.13;;;6.99;67.10
14273;BME280;7220;49.450;11.052;2023-04-08T01:56:28;98336.22;;;6.99;67.46
14273;BME280;7220;49.450;11.052;2023-04-08T02:00:33;98337.13;;;6.98;67.47
14273;BME280;7220;49.450;11.052;2023-04-08T02:04:35;98340.69;;;6.97;67.26
14273;BME280;7220;49.450;11.052;2023-04-08T02:08:35;98338.50;;;6.85;67.78
14273;BME280;7220;49.450;11.052;2023-04-08T02:12:36;98337.66;;;6.84;67.72
14273;BME280;7220;49.450;11.052;2023-04-08T02:16:52;98343.19;;;6.76;68.37
14273;BME280;7220;49.450;11.052;2023-04-08T02:21:19;98346.72;;;6.77;67.83
14273;BME280;7220;49.450;11.052;2023-04-08T02:25:23;98358.22;;;6.74;67.94
14273;BME280;7220;49.450;11.052;2023-04-08T02:29:25;98352.94;;;6.74;68.00
14273;BME280;7220;49.450;11.052;2023-04-08T02:33:27;98354.81;;;6.72;68.35
14273;BME280;7220;49.450;11.052;2023-04-08T02:37:27;98355.88;;;6.67;68.73
14273;BME280;7220;49.450;11.052;2023-04-08T02:41:28;98358.69;;;6.62;68.68
14273;BME280;7220;49.450;11.052;2023-04-08T02:45:36;98367.97;;;6.49;68.63
14273;BME280;7220;49.450;11.052;2023-04-08T02:49:37;98360.78;;;6.52;68.41
14273;BME280;7220;49.450;11.052;2023-04-08T02:53:37;98362.56;;;6.52;68.69
14273;BME280;7220;49.450;11.052;2023-04-08T02:57:39;98360.03;;;6.49;68.76
14273;BME280;7220;49.450;11.052;2023-04-08T03:01:40;98362.69;;;6.49;68.59
14273;BME280;7220;49.450;11.052;2023-04-08T03:05:43;98375.97;;;6.45;68.35
14273;BME280;7220;49.450;11.052;2023-04-08T03:09:43;98377.84;;;6.42;69.15
14273;BME280;7220;49.450;11.052;2023-04-08T03:13:44;98365.63;;;6.39;68.27
14273;BME280;7220;49.450;11.052;2023-04-08T03:17:45;98368.28;;;6.38;68.65
14273;BME280;7220;49.450;11.052;2023-04-08T03:21:46;98379.78;;;6.37;68.42
14273;BME280;7220;49.450;11.052;2023-04-08T03:25:46;98371.06;;;6.35;68.04
14273;BME280;7220;49.450;11.052;2023-04-08T03:29:46;98382.47;;;6.35;67.95
14273;BME280;7220;49.450;11.052;2023-04-08T03:33:47;98388.25;;;6.20;68.32
14273;BME280;7220;49.450;11.052;2023-04-08T03:37:47;98379.66;;;6.13;68.91
14273;BME280;7220;49.450;11.052;2023-04-08T03:41:50;98381.47;;;6.12;68.96
14273;BME280;7220;49.450;11.052;2023-04-08T03:45:51;98388.69;;;6.06;68.96
14273;BME280;7220;49.450;11.052;2023-04-08T03:49:54;98385.41;;;5.99;68.80
14273;BME280;7220;49.450;11.052;2023-04-08T03:53:55;98381.06;;;5.96;68.36
14273;BME280;7220;49.450;11.052;2023-04-08T03:57:55;98389.13;;;5.92;68.56
14273;BME280;7220;49.450;11.052;2023-04-08T04:01:55;98395.31;;;5.91;68.99
14273;BME280;7220;49.450;11.052;2023-04-08T04:05:56;98388.50;;;5.83;69.08
14273;BME280;7220;49.450;11.052;2023-04-08T04:09:56;98403.50;;;5.81;69.78
14273;BME280;7220;49.450;11.052;2023-04-08T04:13:56;98399.28;;;5.76;69.67
14273;BME280;7220;49.450;11.052;2023-04-08T04:17:57;98395.06;;;5.70;69.78
14273;BME280;7220;49.450;11.052;2023-04-08T04:21:57;98401.97;;;5.74;70.26
14273;BME280;7220;49.450;11.052;2023-04-08T04:25:58;98405.38;;;5.78;70.10
14273;BME280;7220;49.450;11.052;2023-04-08T04:29:59;98405.44;;;5.76;70.14
14273;BME280;7220;49.450;11.052;2023-04-08T04:34:00;98404.41;;;5.80;69.89
14273;BME280;7220;49.450;11.052;2023-04-08T04:38:00;98415.88;;;5.79;69.86
14273;BME280;7220;49.450;11.052;2023-04-08T04:42:00;98413.16;;;5.82;69.92
14273;BME280;7220;49.450;11.052;2023-04-08T04:46:02;98414.88;;;5.83;69.62
14273;BME280;7220;49.450;11.052;2023-04-08T04:50:06;98413.09;;;5.84;69.60
14273;BME280;7220;49.450;11.052;2023-04-08T04:54:06;98417.53;;;5.82;69.55
14273;BME280;7220;49.450;11.052;2023-04-08T04:58:07;98432.44;;;5.84;69.30
14273;BME280;7220;49.450;11.052;2023-04-08T05:02:07;98425.25;;;5.90;68.86
14273;BME280;7220;49.450;11.052;2023-04-08T05:06:08;98437.38;;;5.95;69.28
14273;BME280;7220;49.450;11.052;2023-04-08T05:10:08;98431.34;;;5.92;69.46
14273;BME280;7220;49.450;11.052;2023-04-08T05:14:10;98448.97;;;5.90;69.08
14273;BME280;7220;49.450;11.052;2023-04-08T05:18:10;98435.66;;;5.94;68.77
14273;BME280;7220;49.450;11.052;2023-04-08T05:22:11;98454.84;;;5.99;68.52
14273;BME280;7220;49.450;11.052;2023-04-08T05:26:11;98440.75;;;6.00;68.44
14273;BME280;7220;49.450;11.052;2023-04-08T05:30:12;98446.50;;;6.13;67.59
14273;BME280;7220;49.450;11.052;2023-04-08T05:34:12;98443.72;;;6.18;67.12
14273;BME280;7220;49.450;11.052;2023-04-08T05:38:12;98451.44;;;6.24;67.07
14273;BME280;7220;49.450;11.052;2023-04-08T05:42:13;98463.97;;;6.18;68.24
14273;BME280;7220;49.450;11.052;2023-04-08T05:46:13;98454.09;;;6.24;67.37
14273;BME280;7220;49.450;11.052;2023-04-08T05:50:13;98462.25;;;6.17;68.04
14273;BME280;7220;49.450;11.052;2023-04-08T05:54:14;98463.16;;;6.15;68.13
14273;BME280;7220;49.450;11.052;2023-04-08T05:58:14;98477.91;;;6.21;68.97
14273;BME280;7220;49.450;11.052;2023-04-08T06:02:15;98465.94;;;6.11;70.30
14273;BME280;7220;49.450;11.052;2023-04-08T06:06:15;98481.66;;;6.14;71.17
14273;BME280;7220;49.450;11.052;2023-04-08T06:10:16;98479.72;;;6.21;72.53
14273;BME280;7220;49.450;11.052;2023-04-08T06:14:16;98490.28;;;6.21;74.08
14273;BME280;7220;49.450;11.052;2023-04-08T06:18:17;98479.78;;;6.18;75.41
14273;BME280;7220;49.450;11.052;2023-04-08T06:22:17;98484.22;;;6.17;77.20
14273;BME280;7220;49.450;11.052;2023-04-08T06:26:17;98486.72;;;6.22;77.60
14273;BME280;7220;49.450;11.052;2023-04-08T06:30:17;98490.56;;;6.11;79.92
14273;BME280;7220;49.450;11.052;2023-04-08T06:34:18;98489.91;;;6.05;82.66
14273;BME280;7220;49.450;11.052;2023-04-08T06:38:18;98491.59;;;6.06;83.38
14273;BME280;7220;49.450;11.052;2023-04-08T06:42:18;98505.47;;;5.81;86.36
14273;BME280;7220;49.450;11.052;2023-04-08T06:46:19;98507.53;;;5.71;88.97
14273;BME280;7220;49.450;11.052;2023-04-08T06:50:19;98517.19;;;5.72;90.52
14273;BME280;7220;49.450;11.052;2023-04-08T06:54:20;98512.72;;;5.74;91.42
14273;BME280;7220;49.450;11.052;2023-04-08T06:58:20;98516.34;;;5.72;92.62
14273;BME280;7220;49.450;11.052;2023-04-08T07:02:21;98517.75;;;5.83;92.15
14273;BME280;7220;49.450;11.052;2023-04-08T07:06:21;98528.75;;;5.68;94.24
14273;BME280;7220;49.450;11.052;2023-04-08T07:10:22;98526.19;;;5.65;95.51
14273;BME280;7220;49.450;11.052;2023-04-08T07:14:22;98534.16;;;5.62;96.51
14273;BME280;7220;49.450;11.052;2023-04-08T07:18:22;98534.09;;;5.65;96.79
14273;BME280;7220;49.450;11.052;2023-04-08T07:22:23;98535.00;;;5.64;96.98
14273;BME280;7220;49.450;11.052;2023-04-08T07:26:26;98539.09;;;5.74;96.14
14273;BME280;7220;49.450;11.052;2023-04-08T07:30:27;98540.84;;;5.75;96.86
14273;BME280;7220;49.450;11.052;2023-04-08T07:34:28;98544.25;;;5.79;96.90
14273;BME280;7220;49.450;11.052;2023-04-08T07:38:28;98553.13;;;5.76;98.05
14273;BME280;7220;49.450;11.052;2023-04-08T07:42:28;98548.69;;;5.77;98.59
14273;BME280;7220;49.450;11.052;2023-04-08T07:46:29;98556.41;;;5.84;98.03
14273;BME280;7220;49.450;11.052;2023-04-08T07:50:30;98558.53;;;5.70;100.00
14273;BME280;7220;49.450;11.052;2023-04-08T07:54:31;98562.00;;;5.72;100.00
14273;BME280;7220;49.450;11.052;2023-04-08T07:58:35;98574.13;;;5.79;100.00
14273;BME280;7220;49.450;11.052;2023-04-08T08:02:35;98573.34;;;5.76;100.00
14273;BME280;7220;49.450;11.052;2023-04-08T08:06:35;98569.34;;;5.92;98.91
14273;BME280;7220;49.450;11.052;2023-04-08T08:10:39;98578.94;;;5.95;98.17
14273;BME280;7220;49.450;11.052;2023-04-08T08:14:39;98581.56;;;5.96;97.96
14273;BME280;7220;49.450;11.052;2023-04-08T08:18:40;98585.09;;;5.95;98.29
14273;BME280;7220;49.450;11.052;2023-04-08T08:22:41;98585.53;;;5.80;99.01
14273;BME280;7220;49.450;11.052;2023-04-08T08:26:41;98589.09;;;5.79;99.03
14273;BME280;7220;49.450;11.052;2023-04-08T08:30:44;98587.34;;;5.78;100.00
14273;BME280;7220;49.450;11.052;2023-04-08T08:34:44;98600.59;;;5.76;100.00
14273;BME280;7220;49.450;11.052;2023-04-08T08:38:44;98603.00;;;5.84;100.00
14273;BME280;7220;49.450;11.052;2023-04-08T08:42:51;98598.63;;;5.83;99.72
14273;BME280;7220;49.450;11.052;2023-04-08T08:46:52;98597.31;;;5.99;99.72
14273;BME280;7220;49.450;11.052;2023-04-08T08:50:53;98602.47;;;6.04;99.29
14273;BME280;7220;49.450;11.052;2023-04-08T08:54:57;98604.06;;;6.10;99.06
14273;BME280;7220;49.450;11.052;2023-04-08T08:58:58;98606.53;;;6.16;98.77
14273;BME280;7220;49.450;11.052;2023-04-08T09:07:23;98614.56;;;6.41;97.30
14273;BME280;7220;49.450;11.052;2023-04-08T09:11:25;98620.88;;;6.37;97.29
14273;BME280;7220;49.450;11.052;2023-04-08T09:15:25;98619.97;;;6.38;96.88
14273;BME280;7220;49.450;11.052;2023-04-08T09:19:26;98614.53;;;6.43;97.22
14273;BME280;7220;49.450;11.052;2023-04-08T09:23:47;98619.16;;;6.65;95.03
14273;BME280;7220;49.450;11.052;2023-04-08T09:27:47;98621.66;;;6.69;95.99
14273;BME280;7220;49.450;11.052;2023-04-08T09:31:52;98627.38;;;6.84;95.63
14273;BME280;7220;49.450;11.052;2023-04-08T09:35:53;98626.25;;;6.91;93.91
14273;BME280;7220;49.450;11.052;2023-04-08T09:39:53;98631.50;;;6.92;95.14
14273;BME280;7220;49.450;11.052;2023-04-08T09:43:55;98633.06;;;6.98;94.48
14273;BME280;7220;49.450;11.052;2023-04-08T09:48:01;98623.63;;;6.91;95.13
14273;BME280;7220;49.450;11.052;2023-04-08T09:52:14;98634.09;;;6.94;95.29
14273;BME280;7220;49.450;11.052;2023-04-08T09:56:20;98633.03;;;7.00;95.37
14273;BME280;7220;49.450;11.052;2023-04-08T10:00:24;98642.69;;;7.01;94.41
14273;BME280;7220;49.450;11.052;2023-04-08T10:04:28;98643.75;;;6.95;94.81
14273;BME280;7220;49.450;11.052;2023-04-08T10:08:30;98634.91;;;6.96;95.78
14273;BME280;7220;49.450;11.052;2023-04-08T10:12:32;98639.25;;;6.97;96.75
14273;BME280;7220;49.450;11.052;2023-04-08T10:16:33;98639.03;;;7.05;95.66
14273;BME280;7220;49.450;11.052;2023-04-08T10:24:33;98630.69;;;7.17;94.91
14273;BME280;7220;49.450;11.052;2023-04-08T10:28:34;98649.03;;;7.22;94.12
14273;BME280;7220;49.450;11.052;2023-04-08T10:32:39;98632.19;;;7.26;93.92
14273;BME280;7220;49.450;11.052;2023-04-08T10:36:40;98624.56;;;7.42;93.46
14273;BME280;7220;49.450;11.052;2023-04-08T10:40:41;98623.28;;;7.54;93.14
14273;BME280;7220;49.450;11.052;2023-04-08T10:44:43;98628.25;;;7.65;92.81
14273;BME280;7220;49.450;11.052;2023-04-08T10:48:58;98628.53;;;7.81;91.32
14273;BME280;7220;49.450;11.052;2023-04-08T10:52:59;98617.72;;;7.88;90.89
14273;BME280;7220;49.450;11.052;2023-04-08T10:57:00;98624.69;;;7.89;91.16
14273;BME280;7220;49.450;11.052;2023-04-08T11:01:07;98637.94;;;7.89;90.96
14273;BME280;7220;49.450;11.052;2023-04-08T11:05:09;98620.50;;;7.84;89.65
14273;BME280;7220;49.450;11.052;2023-04-08T11:09:09;98616.59;;;7.94;89.19
14273;BME280;7220;49.450;11.052;2023-04-08T11:13:10;98620.19;;;8.17;89.60
14273;BME280;7220;49.450;11.052;2023-04-08T11:17:13;98620.66;;;8.28;88.76
14273;BME280;7220;49.450;11.052;2023-04-08T11:21:15;98619.81;;;8.51;88.12
14273;BME280;7220;49.450;11.052;2023-04-08T11:25:16;98620.47;;;9.03;86.23
14273;BME280;7220;49.450;11.052;2023-04-08T11:29:17;98612.81;;;9.38;84.87
14273;BME280;7220;49.450;11.052;2023-04-08T11:33:17;98618.25;;;9.35;83.44
14273;BME280;7220;49.450;11.052;2023-04-08T11:37:17;98624.59;;;9.10;82.68
14273;BME280;7220;49.450;11.052;2023-04-08T11:41:18;98622.66;;;8.91;82.39
14273;BME280;7220;49.450;11.052;2023-04-08T11:45:19;98613.25;;;8.84;82.80
14273;BME280;7220;49.450;11.052;2023-04-08T11:49:20;98626.00;;;8.74;83.19
14273;BME280;7220;49.450;11.052;2023-04-08T11:53:24;98620.53;;;8.79;83.48
14273;BME280;7220;49.450;11.052;2023-04-08T11:57:28;98623.56;;;8.92;82.65
14273;BME280;7220;49.450;11.052;2023-04-08T12:01:29;98617.38;;;8.91;82.92
14273;BME280;7220;49.450;11.052;2023-04-08T12:05:31;98615.81;;;9.08;83.02
14273;BME280;7220;49.450;11.052;2023-04-08T12:09:31;98618.38;;;9.31;82.04
14273;BME280;7220;49.450;11.052;2023-04-08T12:13:31;98617.41;;;9.55;81.31
14273;BME280;7220;49.450;11.052;2023-04-08T12:17:32;98608.25;;;9.62;80.72
14273;BME280;7220;49.450;11.052;2023-04-08T12:21:32;98611.91;;;9.59;79.79
14273;BME280;7220;49.450;11.052;2023-04-08T12:25:33;98606.72;;;9.56;79.34
14273;BME280;7220;49.450;11.052;2023-04-08T12:29:34;98607.72;;;9.54;79.84
14273;BME280;7220;49.450;11.052;2023-04-08T12:33:34;98614.84;;;9.53;80.15
14273;BME280;7220;49.450;11.052;2023-04-08T12:37:35;98618.06;;;9.39;79.95
14273;BME280;7220;49.450;11.052;2023-04-08T12:41:35;98613.50;;;9.43;80.17
14273;BME280;7220;49.450;11.052;2023-04-08T12:45:36;98623.31;;;9.41;80.04
14273;BME280;7220;49.450;11.052;2023-04-08T12:49:37;98623.56;;;9.35;80.70
14273;BME280;7220;49.450;11.052;2023-04-08T12:53:37;98617.16;;;9.40;80.22
14273;BME280;7220;49.450;11.052;2023-04-08T12:57:37;98617.81;;;9.45;79.62
14273;BME280;7220;49.450;11.052;2023-04-08T13:01:37;98620.56;;;9.42;79.59
14273;BME280;7220;49.450;11.052;2023-04-08T13:05:38;98623.56;;;9.35;79.56
14273;BME280;7220;49.450;11.052;2023-04-08T13:09:38;98615.81;;;9.30;79.98
14273;BME280;7220;49.450;11.052;2023-04-08T13:13:38;98619.50;;;9.26;80.52
14273;BME280;7220;49.450;11.052;2023-04-08T13:17:39;98622.84;;;9.31;80.80
14273;BME280;7220;49.450;11.052;2023-04-08T13:21:39;98619.44;;;9.27;80.45
14273;BME280;7220;49.450;11.052;2023-04-08T13:25:40;98624.69;;;9.29;80.04
14273;BME280;7220;49.450;11.052;2023-04-08T13:29:40;98616.34;;;9.38;80.12
14273;BME280;7220;49.450;11.052;2023-04-08T13:33:40;98629.81;;;9.54;78.98
14273;BME280;7220;49.450;11.052;2023-04-08T13:37:41;98624.03;;;9.44;79.19
14273;BME280;7220;49.450;11.052;2023-04-08T13:41:41;98618.13;;;9.38;78.44
14273;BME280;7220;49.450;11.052;2023-04-08T13:45:41;98623.19;;;9.44;77.82
14273;BME280;7220;49.450;11.052;2023-04-08T13:49:42;98618.53;;;9.49;76.80
14273;BME280;7220;49.450;11.052;2023-04-08T13:53:43;98619.88;;;9.59;76.53
14273;BME280;7220;49.450;11.052;2023-04-08T13:57:46;98624.38;;;9.57;76.23
14273;BME280;7220;49.450;11.052;2023-04-08T14:01:46;98614.94;;;9.71;76.45
14273;BME280;7220;49.450;11.052;2023-04-08T14:05:47;98613.75;;;9.78;76.29
14273;BME280;7220;49.450;11.052;2023-04-08T14:09:47;98611.19;;;9.76;76.81
14273;BME280;7220;49.450;11.052;2023-04-08T14:13:47;98606.44;;;10.04;75.62
14273;BME280;7220;49.450;11.052;2023-04-08T14:17:47;98607.16;;;10.26;74.55
14273;BME280;7220;49.450;11.052;2023-04-08T14:21:48;98605.06;;;10.54;72.75
14273;BME280;7220;49.450;11.052;2023-04-08T14:25:49;98613.31;;;10.67;71.95
14273;BME280;7220;49.450;11.052;2023-04-08T14:29:49;98613.38;;;10.84;70.35
14273;BME280;7220;49.450;11.052;2023-04-08T14:33:50;98607.97;;;11.05;70.72
14273;BME280;7220;49.450;11.052;2023-04-08T14:37:50;98607.47;;;11.33;67.84
14273;BME280;7220;49.450;11.052;2023-04-08T14:41:50;98607.13;;;11.22;66.10
14273;BME280;7220;49.450;11.052;2023-04-08T14:45:51;98601.88;;;11.20;65.56
14273;BME280;7220;49.450;11.052;2023-04-08T14:49:51;98599.59;;;11.13;65.12
14273;BME280;7220;49.450;11.052;2023-04-08T14:53:52;98603.41;;;11.07;64.16
14273;BME280;7220;49.450;11.052;2023-04-08T14:57:52;98610.63;;;11.05;64.44
14273;BME280;7220;49.450;11.052;2023-04-08T15:01:52;98602.16;;;10.97;65.15
14273;BME280;7220;49.450;11.052;2023-04-08T15:05:53;98614.75;;;10.93;65.66
14273;BME280;7220;49.450;11.052;2023-04-08T15:09:54;98608.63;;;10.91;64.44
14273;BME280;7220;49.450;11.052;2023-04-08T15:13:55;98623.88;;;10.87;64.51
14273;BME280;7220;49.450;11.052;2023-04-08T15:17:56;98614.81;;;10.72;62.52
14273;BME280;7220;49.450;11.052;2023-04-08T15:21:56;98629.72;;;10.77;62.64
14273;BME280;7220;49.450;11.052;2023-04-08T15:25:56;98626.34;;;10.73;62.84
14273;BME280;7220;49.450;11.052;2023-04-08T15:29:57;98631.50;;;10.76;62.18
14273;BME280;7220;49.450;11.052;2023-04-08T15:33:57;98633.34;;;10.74;63.21
14273;BME280;7220;49.450;11.052;2023-04-08T15:37:58;98636.72;;;10.78;63.49
14273;BME280;7220;49.450;11.052;2023-04-08T15:41:58;98639.47;;;10.76;63.24
14273;BME280;7220;49.450;11.052;2023-04-08T15:45:58;98638.41;;;10.61;63.62
14273;BME280;7220;49.450;11.052;2023-04-08T15:49:59;98636.81;;;10.57;64.33
14273;BME280;7220;49.450;11.052;2023-04-08T15:53:59;98647.56;;;10.54;64.56
14273;BME280;7220;49.450;11.052;2023-04-08T15:58:00;98650.19;;;10.55;63.62
14273;BME280;7220;49.450;11.052;2023-04-08T16:02:00;98650.59;;;10.46;64.29
14273;BME280;7220;49.450;11.052;2023-04-08T16:06:01;98659.00;;;10.56;64.13
14273;BME280;7220;49.450;11.052;2023-04-08T16:10:01;98658.66;;;10.64;63.84
14273;BME280;7220;49.450;11.052;2023-04-08T16:14:02;98668.16;;;10.69;63.74
14273;BME280;7220;49.450;11.052;2023-04-08T16:18:04;98664.31;;;10.75;63.78
14273;BME280;7220;49.450;11.052;2023-04-08T16:22:05;98675.53;;;10.63;63.99
14273;BME280;7220;49.450;11.052;2023-04-08T16:26:06;98675.88;;;10.74;64.04
14273;BME280;7220;49.450;11.052;2023-04-08T16:30:08;98679.44;;;10.75;64.51
14273;BME280;7220;49.450;11.052;2023-04-08T16:34:08;98678.34;;;10.79;64.44
14273;BME280;7220;49.450;11.052;2023-04-08T16:38:08;98679.22;;;10.79;65.07
14273;BME280;7220;49.450;11.052;2023-04-08T16:42:09;98685.47;;;10.78;64.87
14273;BME280;7220;49.450;11.052;2023-04-08T16:46:15;98697.31;;;10.71;64.26
14273;BME280;7220;49.450;11.052;2023-04-08T16:50:16;98690.56;;;10.64;64.29
14273;BME280;7220;49.450;11.052;2023-04-08T16:54:17;98694.69;;;10.50;64.59
14273;BME280;7220;49.450;11.052;2023-04-08T16:58:17;98700.16;;;10.47;64.70
14273;BME280;7220;49.450;11.052;2023-04-08T17:02:17;98701.22;;;10.43;64.76
14273;BME280;7220;49.450;11.052;2023-04-08T17:06:18;98705.75;;;10.41;64.91
14273;BME280;7220;49.450;11.052;2023-04-08T17:10:21;98711.06;;;10.41;64.97
14273;BME280;7220;49.450;11.052;2023-04-08T17:14:21;98721.91;;;10.35;65.29
14273;BME280;7220;49.450;11.052;2023-04-08T17:18:21;98730.66;;;10.38;65.47
14273;BME280;7220;49.450;11.052;2023-04-08T17:22:22;98722.91;;;10.32;64.78
14273;BME280;7220;49.450;11.052;2023-04-08T17:26:22;98725.94;;;10.24;65.82
14273;BME280;7220;49.450;11.052;2023-04-08T17:30:22;98729.63;;;10.20;66.11
14273;BME280;7220;49.450;11.052;2023-04-08T17:34:23;98735.09;;;10.17;65.83
14273;BME280;7220;49.450;11.052;2023-04-08T17:38:23;98739.63;;;10.15;66.81
14273;BME280;7220;49.450;11.052;2023-04-08T17:42:24;98735.22;;;10.14;66.59
14273;BME280;7220;49.450;11.052;2023-04-08T17:46:24;98743.31;;;10.11;66.39
14273;BME280;7220;49.450;11.052;2023-04-08T17:50:24;98747.03;;;10.07;66.39
14273;BME280;7220;49.450;11.052;2023-04-08T17:54:25;98742.78;;;10.03;67.23
14273;BME280;7220;49.450;11.052;2023-04-08T17:58:25;98758.25;;;9.93;68.08
14273;BME280;7220;49.450;11.052;2023-04-08T18:02:26;98752.13;;;9.91;67.94
14273;BME280;7220;49.450;11.052;2023-04-08T18:06:28;98766.28;;;9.91;68.02
14273;BME280;7220;49.450;11.052;2023-04-08T18:10:28;98760.16;;;9.89;69.13
14273;BME280;7220;49.450;11.052;2023-04-08T18:14:29;98774.38;;;9.88;69.22
14273;BME280;7220;49.450;11.052;2023-04-08T18:18:29;98782.41;;;9.87;69.09
14273;BME280;7220;49.450;11.052;2023-04-08T18:22:29;98786.72;;;9.89;69.87
14273;BME280;7220;49.450;11.052;2023-04-08T18:26:30;98785.97;;;9.86;70.03
14273;BME280;7220;49.450;11.052;2023-04-08T18:30:30;98798.31;;;9.87;70.36
14273;BME280;7220;49.450;11.052;2023-04-08T18:34:31;98799.31;;;9.84;70.53
14273;BME280;7220;49.450;11.052;2023-04-08T18:38:31;98809.13;;;9.82;70.68
14273;BME280;7220;49.450;11.052;2023-04-08T18:42:31;98812.81;;;9.78;71.27
14273;BME280;7220;49.450;11.052;2023-04-08T18:46:32;98821.03;;;9.72;71.68
14273;BME280;7220;49.450;11.052;2023-04-08T18:50:32;98822.81;;;9.49;72.32
14273;BME280;7220;49.450;11.052;2023-04-08T18:54:32;98823.94;;;9.43;72.92
14273;BME280;7220;49.450;11.052;2023-04-08T18:58:33;98836.75;;;9.32;73.95
14273;BME280;7220;49.450;11.052;2023-04-08T19:02:34;98834.03;;;9.34;74.66
14273;BME280;7220;49.450;11.052;2023-04-08T19:06:34;98835.84;;;9.33;74.47
14273;BME280;7220;49.450;11.052;2023-04-08T19:10:36;98842.00;;;9.34;75.04
14273;BME280;7220;49.450;11.052;2023-04-08T19:14:37;98837.97;;;9.23;75.33
14273;BME280;7220;49.450;11.052;2023-04-08T19:18:38;98850.22;;;9.26;75.41
14273;BME280;7220;49.450;11.052;2023-04-08T19:22:38;98843.22;;;9.25;75.90
14273;BME280;7220;49.450;11.052;2023-04-08T19:26:39;98845.34;;;9.15;76.32
14273;BME280;7220;49.450;11.052;2023-04-08T19:30:40;98850.53;;;9.18;76.25
14273;BME280;7220;49.450;11.052;2023-04-08T19:34:40;98858.50;;;9.18;76.26
14273;BME280;7220;49.450;11.052;2023-04-08T19:38:41;98859.66;;;9.11;77.29
14273;BME280;7220;49.450;11.052;2023-04-08T19:42:43;98857.81;;;9.13;76.87
14273;BME280;7220;49.450;11.052;2023-04-08T19:46:43;98862.28;;;9.11;77.33
14273;BME280;7220;49.450;11.052;2023-04-08T19:50:43;98872.09;;;9.09;77.59
14273;BME280;7220;49.450;11.052;2023-04-08T19:54:49;98878.31;;;9.08;77.93
14273;BME280;7220;49.450;11.052;2023-04-08T19:58:50;98874.84;;;9.06;77.76
14273;BME280;7220;49.450;11.052;2023-04-08T20:02:50;98871.44;;;9.02;78.12
14273;BME280;7220;49.450;11.052;2023-04-08T20:06:51;98870.59;;;9.02;77.89
14273;BME280;7220;49.450;11.052;2023-04-08T20:10:51;98869.75;;;8.99;78.03
14273;BME280;7220;49.450;11.052;2023-04-08T20:14:52;98873.78;;;8.86;78.94
14273;BME280;7220;49.450;11.052;2023-04-08T20:18:53;98869.19;;;8.91;78.93
14273;BME280;7220;49.450;11.052;2023-04-08T20:22:53;98877.13;;;8.91;78.44
14273;BME280;7220;49.450;11.052;2023-04-08T20:26:54;98877.13;;;8.91;79.03
14273;BME280;7220;49.450;11.052;2023-04-08T20:30:54;98878.03;;;8.90;79.07
14273;BME280;7220;49.450;11.052;2023-04-08T20:34:55;98879.16;;;8.84;79.31
14273;BME280;7220;49.450;11.052;2023-04-08T20:38:55;98876.53;;;8.83;79.51
14273;BME280;7220;49.450;11.052;2023-04-08T20:42:56;98884.72;;;8.77;80.12
14273;BME280;7220;49.450;11.052;2023-04-08T20:46:56;98878.59;;;8.75;79.84
14273;BME280;7220;49.450;11.052;2023-04-08T20:50:57;98876.75;;;8.77;79.55
14273;BME280;7220;49.450;11.052;2023-04-08T20:54:57;98877.69;;;8.76;79.52
14273;BME280;7220;49.450;11.052;2023-04-08T20:58:57;98887.59;;;8.71;80.16
14273;BME280;7220;49.450;11.052;2023-04-08T21:02:58;98883.44;;;8.63;80.42
14273;BME280;7220;49.450;11.052;2023-04-08T21:06:58;98883.38;;;8.65;80.93
14273;BME280;7220;49.450;11.052;2023-04-08T21:10:58;98903.50;;;8.71;81.25
14273;BME280;7220;49.450;11.052;2023-04-08T21:14:59;98886.72;;;8.70;80.61
14273;BME280;7220;49.450;11.052;2023-04-08T21:18:59;98896.53;;;8.66;81.07
14273;BME280;7220;49.450;11.052;2023-04-08T21:23:01;98890.41;;;8.66;81.12
14273;BME280;7220;49.450;11.052;2023-04-08T21:27:01;98893.88;;;8.68;80.83
14273;BME280;7220;49.450;11.052;2023-04-08T21:31:11;98895.59;;;8.69;80.88
14273;BME280;7220;49.450;11.052;2023-04-08T21:35:12;98897.44;;;8.67;81.25
14273;BME280;7220;49.450;11.052;2023-04-08T21:39:12;98890.34;;;8.67;80.71
14273;BME280;7220;49.450;11.052;2023-04-08T21:43:12;98892.88;;;8.71;80.66